createdAt,value
2022-08-05T00:00:03.663Z,50.877083
2022-08-05T00:01:25.225Z,50.877094
2022-08-05T00:02:07.765Z,50.877121
2022-08-05T00:03:04.635Z,50.877205
2022-08-05T00:04:03.667Z,50.877228
2022-08-05T00:05:05.916Z,50.877136
2022-08-05T00:06:22.098Z,50.877052
2022-08-05T00:07:27.019Z,50.877029
2022-08-05T00:08:04.741Z,50.877010
2022-08-05T00:09:03.576Z,50.876953
2022-08-05T00:10:03.563Z,50.877003
2022-08-05T00:11:03.588Z,50.876995
2022-08-05T00:12:03.559Z,50.876995
2022-08-05T00:13:03.543Z,50.877037
2022-08-05T00:14:12.887Z,50.877045
2022-08-05T00:15:54.404Z,50.877029
2022-08-05T00:16:04.517Z,50.877010
2022-08-05T00:17:03.507Z,50.877026
2022-08-05T00:18:03.503Z,50.876926
2022-08-05T00:19:03.530Z,50.876915
2022-08-05T00:20:03.480Z,50.876919
2022-08-05T00:21:03.450Z,50.876957
2022-08-05T00:22:03.448Z,50.876976
2022-08-05T00:23:12.917Z,50.876923
2022-08-05T00:24:09.846Z,50.876900
2022-08-05T00:25:03.451Z,50.876881
2022-08-05T00:26:03.429Z,50.876812
2022-08-05T00:27:04.695Z,50.876865
2022-08-05T00:28:04.389Z,50.876896
2022-08-05T00:29:03.386Z,50.876965
2022-08-05T00:30:35.293Z,50.877048
2022-08-05T00:31:04.619Z,50.877048
2022-08-05T00:32:13.476Z,50.877048
2022-08-05T00:33:04.339Z,50.877048
2022-08-05T00:34:53.953Z,50.877048
2022-08-05T00:35:07.621Z,50.877048
2022-08-05T00:36:15.072Z,50.877048
2022-08-05T00:37:09.928Z,50.877048
2022-08-05T00:38:04.284Z,50.877048
2022-08-05T00:39:04.335Z,50.877048
2022-08-05T00:40:03.298Z,50.877048
2022-08-05T00:41:03.277Z,50.877159
2022-08-05T00:42:03.274Z,50.877159
2022-08-05T00:43:07.420Z,50.877159
2022-08-05T00:44:03.243Z,50.877163
2022-08-05T00:45:03.214Z,50.877163
2022-08-05T00:46:03.220Z,50.877167
2022-08-05T00:47:04.144Z,50.877182
2022-08-05T00:48:05.574Z,50.877182
2022-08-05T00:49:03.182Z,50.877171
2022-08-05T00:50:03.178Z,50.877171
2022-08-05T00:51:08.785Z,50.877178
2022-08-05T00:52:04.180Z,50.877171
2022-08-05T00:53:03.142Z,50.877151
2022-08-05T00:54:04.142Z,50.877155
2022-08-05T00:55:03.130Z,50.877171
2022-08-05T00:56:03.121Z,50.877178
2022-08-05T00:57:03.121Z,50.877178
2022-08-05T00:58:03.088Z,50.877167
2022-08-05T00:59:03.093Z,50.877174
2022-08-05T01:00:03.075Z,50.877178
2022-08-05T01:01:03.140Z,50.877167
2022-08-05T01:02:03.049Z,50.877171
2022-08-05T01:03:03.060Z,50.877178
2022-08-05T01:04:03.030Z,50.877174
2022-08-05T01:05:03.022Z,50.877178
2022-08-05T01:06:05.363Z,50.877155
2022-08-05T01:07:05.173Z,50.877155
2022-08-05T01:08:41.504Z,50.877163
2022-08-05T01:09:03.977Z,50.877159
2022-08-05T01:10:02.982Z,50.877209
2022-08-05T01:11:03.989Z,50.877205
2022-08-05T01:12:18.108Z,50.877193
2022-08-05T01:13:12.852Z,50.877186
2022-08-05T01:14:03.940Z,50.877155
2022-08-05T01:15:04.065Z,50.877182
2022-08-05T01:16:02.950Z,50.877186
2022-08-05T01:17:02.911Z,50.877193
2022-08-05T01:18:02.895Z,50.877201
2022-08-05T01:19:02.921Z,50.877220
2022-08-05T01:20:03.707Z,50.877216
2022-08-05T01:21:03.896Z,50.877220
2022-08-05T01:22:03.854Z,50.877213
2022-08-05T01:23:14.399Z,50.877216
2022-08-05T01:24:14.155Z,50.877197
2022-08-05T01:25:04.491Z,50.877193
2022-08-05T01:26:02.816Z,50.877190
2022-08-05T01:27:17.635Z,50.877186
2022-08-05T01:28:03.787Z,50.877186
2022-08-05T01:29:05.100Z,50.877190
2022-08-05T01:30:02.776Z,50.877205
2022-08-05T01:31:02.975Z,50.877174
2022-08-05T01:32:02.812Z,50.877178
2022-08-05T01:33:02.746Z,50.877193
2022-08-05T01:34:02.748Z,50.877209
2022-08-05T01:35:02.731Z,50.877205
2022-08-05T01:36:03.719Z,50.877216
2022-08-05T01:37:02.733Z,50.877220
2022-08-05T01:38:02.699Z,50.877220
2022-08-05T01:39:02.834Z,50.877216
2022-08-05T01:40:02.743Z,50.877205
2022-08-05T01:41:02.665Z,50.877213
2022-08-05T01:42:02.670Z,50.877209
2022-08-05T01:43:02.670Z,50.877209
2022-08-05T01:44:02.809Z,50.877224
2022-08-05T01:45:03.238Z,50.877209
2022-08-05T01:46:07.423Z,50.877220
2022-08-05T01:47:05.226Z,50.877213
2022-08-05T01:48:02.593Z,50.877209
2022-08-05T01:49:02.609Z,50.877197
2022-08-05T01:50:03.605Z,50.877209
2022-08-05T01:51:12.054Z,50.877190
2022-08-05T01:52:17.448Z,50.877190
2022-08-05T01:53:03.890Z,50.877197
2022-08-05T01:54:02.540Z,50.877209
2022-08-05T01:55:02.533Z,50.877205
2022-08-05T01:56:04.323Z,50.877197
2022-08-05T01:58:10.552Z,50.877178
2022-08-05T01:58:12.657Z,50.877151
2022-08-05T01:59:03.492Z,50.877159
2022-08-05T02:00:02.490Z,50.877151
2022-08-05T02:01:02.486Z,50.877171
2022-08-05T02:02:02.508Z,50.877190
2022-08-05T02:03:03.673Z,50.877186
2022-08-05T02:04:02.439Z,50.877239
2022-08-05T02:05:03.234Z,50.877232
2022-08-05T02:06:03.560Z,50.877205
2022-08-05T02:07:03.581Z,50.877174
2022-08-05T02:08:02.445Z,50.877186
2022-08-05T02:09:02.394Z,50.877190
2022-08-05T02:10:02.405Z,50.877197
2022-08-05T02:11:02.395Z,50.877201
2022-08-05T02:12:02.370Z,50.877151
2022-08-05T02:13:02.375Z,50.877167
2022-08-05T02:14:02.373Z,50.877163
2022-08-05T02:15:03.082Z,50.877235
2022-08-05T02:16:02.321Z,50.877254
2022-08-05T02:17:02.341Z,50.877232
2022-08-05T02:18:32.276Z,50.877205
2022-08-05T02:19:07.225Z,50.877235
2022-08-05T02:20:02.290Z,50.877220
2022-08-05T02:21:02.269Z,50.877201
2022-08-05T02:22:02.312Z,50.877186
2022-08-05T02:23:02.257Z,50.877258
2022-08-05T02:24:02.257Z,50.877148
2022-08-05T02:25:02.269Z,50.877144
2022-08-05T02:26:02.228Z,50.877144
2022-08-05T02:27:09.913Z,50.877186
2022-08-05T02:28:08.670Z,50.877174
2022-08-05T02:29:04.022Z,50.877182
2022-08-05T02:30:02.191Z,50.877190
2022-08-05T02:31:02.196Z,50.877178
2022-08-05T02:32:04.728Z,50.877151
2022-08-05T02:33:02.159Z,50.877193
2022-08-05T02:34:02.151Z,50.877190
2022-08-05T02:35:13.570Z,50.877205
2022-08-05T02:36:03.134Z,50.877224
2022-08-05T02:37:02.151Z,50.877213
2022-08-05T02:38:02.278Z,50.877151
2022-08-05T02:39:02.245Z,50.877213
2022-08-05T02:40:02.101Z,50.877159
2022-08-05T02:41:14.502Z,50.877190
2022-08-05T02:42:03.095Z,50.877228
2022-08-05T02:43:02.072Z,50.877251
2022-08-05T02:44:06.965Z,50.877232
2022-08-05T02:45:02.047Z,50.877220
2022-08-05T02:46:02.039Z,50.877213
2022-08-05T02:47:02.074Z,50.877182
2022-08-05T02:48:11.828Z,50.877163
2022-08-05T02:49:03.006Z,50.877144
2022-08-05T02:50:01.998Z,50.877190
2022-08-05T02:51:02.023Z,50.877159
2022-08-05T02:52:03.665Z,50.877186
2022-08-05T02:53:01.969Z,50.877171
2022-08-05T02:54:03.965Z,50.877171
2022-08-05T02:55:05.541Z,50.877205
2022-08-05T02:56:02.062Z,50.877178
2022-08-05T02:57:01.928Z,50.877201
2022-08-05T02:58:11.988Z,50.877167
2022-08-05T02:59:02.911Z,50.877186
2022-08-05T03:00:01.907Z,50.877178
2022-08-05T03:01:02.280Z,50.877148
2022-08-05T03:02:01.954Z,50.877140
2022-08-05T03:03:01.869Z,50.877140
2022-08-05T03:04:12.102Z,50.877148
2022-08-05T03:05:02.961Z,50.877136
2022-08-05T03:06:54.541Z,50.877178
2022-08-05T03:07:02.853Z,50.877159
2022-08-05T03:08:06.796Z,50.877228
2022-08-05T03:09:03.810Z,50.877159
2022-08-05T03:10:02.147Z,50.877159
2022-08-05T03:11:55.114Z,50.877171
2022-08-05T03:12:02.804Z,50.877190
2022-08-05T03:15:48.181Z,50.877411
2022-08-05T03:16:48.148Z,50.877186
2022-08-05T03:17:48.143Z,50.877140
2022-08-05T03:18:49.131Z,50.877270
2022-08-05T03:19:48.134Z,50.877254
2022-08-05T03:20:48.970Z,50.877186
2022-08-05T03:21:49.364Z,50.877201
2022-08-05T03:22:50.021Z,50.877213
2022-08-05T03:23:48.088Z,50.877213
2022-08-05T03:24:50.753Z,50.877136
2022-08-05T03:26:04.321Z,50.877136
2022-08-05T03:26:49.453Z,50.877171
2022-08-05T03:27:58.973Z,50.877171
2022-08-05T03:28:49.034Z,50.877171
2022-08-05T03:30:07.505Z,50.877171
2022-08-05T03:30:49.001Z,50.877140
2022-08-05T03:31:57.294Z,50.877155
2022-08-05T03:32:48.979Z,50.877163
2022-08-05T03:33:52.760Z,50.877159
2022-08-05T03:34:51.047Z,50.877155
2022-08-05T03:35:47.955Z,50.877193
2022-08-05T03:36:47.948Z,50.877205
2022-08-05T03:37:47.960Z,50.877209
2022-08-05T03:38:52.545Z,50.877205
2022-08-05T03:40:00.971Z,50.877220
2022-08-05T03:40:49.001Z,50.877167
2022-08-05T03:41:47.881Z,50.877151
2022-08-05T03:42:51.687Z,50.877167
2022-08-05T03:44:10.043Z,50.877186
2022-08-05T03:44:48.876Z,50.877167
2022-08-05T03:45:57.254Z,50.877163
2022-08-05T03:46:47.883Z,50.877182
2022-08-05T03:47:47.857Z,50.877178
2022-08-05T03:48:47.834Z,50.877197
2022-08-05T03:49:51.375Z,50.877186
2022-08-05T03:50:47.806Z,50.877171
2022-08-05T03:52:36.555Z,50.877178
2022-08-05T03:55:50.833Z,50.877163
2022-08-05T03:55:52.188Z,50.877163
2022-08-05T03:55:53.788Z,50.877163
2022-08-05T03:56:04.360Z,50.877163
2022-08-05T03:56:50.043Z,50.877167
2022-08-05T03:57:48.068Z,50.877167
2022-08-05T03:58:47.726Z,50.877159
2022-08-05T03:59:54.900Z,50.877159
2022-08-05T04:00:51.364Z,50.877167
2022-08-05T04:01:47.735Z,50.877174
2022-08-05T04:02:51.976Z,50.877171
2022-08-05T04:04:09.098Z,50.877171
2022-08-05T04:04:48.696Z,50.877151
2022-08-05T04:05:47.656Z,50.877163
2022-08-05T04:06:51.356Z,50.877178
2022-08-05T04:07:57.232Z,50.877174
2022-08-05T04:08:48.676Z,50.877190
2022-08-05T04:09:53.019Z,50.877190
2022-08-05T04:10:48.619Z,50.877174
2022-08-05T04:11:52.324Z,50.877178
2022-08-05T04:12:47.605Z,50.877178
2022-08-05T04:13:49.692Z,50.877190
2022-08-05T04:14:47.587Z,50.877178
2022-08-05T04:16:02.936Z,50.877193
2022-08-05T04:16:48.576Z,50.877186
2022-08-05T04:17:56.307Z,50.877174
2022-08-05T04:18:48.539Z,50.877163
2022-08-05T04:19:54.536Z,50.877163
2022-08-05T04:20:48.523Z,50.877159
2022-08-05T04:22:09.086Z,50.877182
2022-08-05T04:22:48.501Z,50.877197
2022-08-05T04:24:05.185Z,50.877197
2022-08-05T04:24:52.932Z,50.877178
2022-08-05T04:26:00.399Z,50.877186
2022-08-05T04:26:48.451Z,50.877186
2022-08-05T04:27:56.840Z,50.877205
2022-08-05T04:28:51.210Z,50.877190
2022-08-05T04:29:47.418Z,50.877186
2022-08-05T04:30:48.010Z,50.877186
2022-08-05T04:31:48.516Z,50.877190
2022-08-05T04:32:47.430Z,50.877197
2022-08-05T04:34:19.082Z,50.877201
2022-08-05T04:34:48.368Z,50.877186
2022-08-05T04:36:16.715Z,50.877205
2022-08-05T04:36:50.231Z,50.877178
2022-08-05T04:38:01.124Z,50.877163
2022-08-05T04:38:50.958Z,50.877190
2022-08-05T04:39:52.910Z,50.877171
2022-08-05T04:40:50.621Z,50.877182
2022-08-05T04:41:48.237Z,50.877190
2022-08-05T04:42:47.344Z,50.877174
2022-08-05T04:43:51.987Z,50.877144
2022-08-05T04:44:48.279Z,50.877167
2022-08-05T04:45:48.878Z,50.877167
2022-08-05T04:46:47.249Z,50.877174
2022-08-05T04:47:47.375Z,50.877159
2022-08-05T04:48:47.260Z,50.877132
2022-08-05T04:50:02.907Z,50.877167
2022-08-05T04:51:02.887Z,50.877125
2022-08-05T04:51:48.200Z,50.877171
2022-08-05T04:52:47.206Z,50.877148
2022-08-05T04:53:47.198Z,50.877205
2022-08-05T04:54:47.190Z,50.877186
2022-08-05T04:56:15.345Z,50.877205
2022-08-05T04:56:48.170Z,50.877182
2022-08-05T04:57:47.684Z,50.877155
2022-08-05T04:58:48.128Z,50.877159
2022-08-05T04:59:48.025Z,50.877174
2022-08-05T05:00:47.164Z,50.877197
2022-08-05T05:02:07.816Z,50.877182
2022-08-05T05:02:48.109Z,50.877205
2022-08-05T05:03:47.094Z,50.877193
2022-08-05T05:04:49.909Z,50.877186
2022-08-05T05:06:39.292Z,50.877190
2022-08-05T05:06:49.280Z,50.877201
2022-08-05T05:07:56.053Z,50.877178
2022-08-05T05:08:49.923Z,50.877190
2022-08-05T05:09:47.028Z,50.877174
2022-08-05T05:10:55.848Z,50.877182
2022-08-05T05:11:53.041Z,50.877193
2022-08-05T05:12:48.008Z,50.877178
2022-08-05T05:13:46.976Z,50.877178
2022-08-05T05:14:50.635Z,50.877178
2022-08-05T05:15:57.577Z,50.877174
2022-08-05T05:16:47.984Z,50.877213
2022-08-05T05:17:56.511Z,50.877159
2022-08-05T05:19:02.739Z,50.877178
2022-08-05T05:19:47.929Z,50.877193
2022-08-05T05:20:46.927Z,50.877167
2022-08-05T05:21:46.893Z,50.877201
2022-08-05T05:22:46.914Z,50.877201
2022-08-05T05:24:04.075Z,50.877193
2022-08-05T05:24:56.822Z,50.877163
2022-08-05T05:25:47.953Z,50.877163
2022-08-05T05:26:46.854Z,50.877125
2022-08-05T05:27:48.758Z,50.877190
2022-08-05T05:28:47.861Z,50.877155
2022-08-05T05:30:04.847Z,50.877190
2022-08-05T05:30:49.729Z,50.877190
2022-08-05T05:31:46.794Z,50.877174
2022-08-05T05:32:46.807Z,50.877174
2022-08-05T05:33:59.182Z,50.877190
2022-08-05T05:34:47.766Z,50.877167
2022-08-05T05:35:47.379Z,50.877174
2022-08-05T05:36:47.189Z,50.877178
2022-08-05T05:37:59.954Z,50.877140
2022-08-05T05:38:47.770Z,50.877148
2022-08-05T05:39:46.729Z,50.877186
2022-08-05T05:40:50.099Z,50.877190
2022-08-05T05:41:54.083Z,50.877201
2022-08-05T05:42:48.680Z,50.877178
2022-08-05T05:43:57.450Z,50.877174
2022-08-05T05:44:47.695Z,50.877186
2022-08-05T05:45:48.425Z,50.877205
2022-08-05T05:46:46.654Z,50.877205
2022-08-05T05:48:06.501Z,50.877197
2022-08-05T05:48:47.778Z,50.877197
2022-08-05T05:49:46.615Z,50.877190
2022-08-05T05:50:47.664Z,50.877178
2022-08-05T05:51:49.997Z,50.877201
2022-08-05T05:52:46.677Z,50.877220
2022-08-05T05:53:57.996Z,50.877209
2022-08-05T05:54:50.920Z,50.877151
2022-08-05T05:55:51.571Z,50.877186
2022-08-05T05:56:47.587Z,50.877201
2022-08-05T05:57:52.691Z,50.877216
2022-08-05T05:58:46.523Z,50.877201
2022-08-05T05:59:46.508Z,50.877094
2022-08-05T06:00:46.594Z,50.876968
2022-08-05T06:01:57.534Z,50.876942
2022-08-05T06:02:47.481Z,50.877022
2022-08-05T06:04:00.648Z,50.877182
2022-08-05T06:04:49.168Z,50.877121
2022-08-05T06:05:46.458Z,50.877174
2022-08-05T06:06:49.149Z,50.877178
2022-08-05T06:08:01.378Z,50.877190
2022-08-05T06:08:49.220Z,50.877178
2022-08-05T06:10:00.084Z,50.877224
2022-08-05T06:10:52.642Z,50.877319
2022-08-05T06:11:59.645Z,50.877308
2022-08-05T06:12:47.387Z,50.877247
2022-08-05T06:13:53.632Z,50.877247
2022-08-05T06:14:46.367Z,50.877247
2022-08-05T06:16:31.066Z,50.877247
2022-08-05T06:16:47.349Z,50.877247
2022-08-05T06:17:52.950Z,50.877247
2022-08-05T06:18:46.340Z,50.877247
2022-08-05T06:19:57.015Z,50.877247
2022-08-05T06:20:47.874Z,50.877247
2022-08-05T06:21:49.933Z,50.877247
2022-08-05T06:22:47.313Z,50.877247
2022-08-05T06:23:46.294Z,50.877247
2022-08-05T06:24:48.269Z,50.877178
2022-08-05T06:26:12.763Z,50.877182
2022-08-05T06:26:52.361Z,50.877171
2022-08-05T06:28:11.537Z,50.877171
2022-08-05T06:28:46.231Z,50.877129
2022-08-05T06:38:58.471Z,50.877171
2022-08-05T06:39:58.416Z,50.877193
2022-08-05T06:40:58.415Z,50.877190
2022-08-05T06:41:58.891Z,50.877151
2022-08-05T06:42:58.395Z,50.877174
2022-08-05T06:44:00.634Z,50.877155
2022-08-05T06:44:58.369Z,50.877205
2022-08-05T06:46:04.083Z,50.877171
2022-08-05T06:46:59.372Z,50.877193
2022-08-05T06:48:44.358Z,50.877220
2022-08-05T06:48:59.250Z,50.877228
2022-08-05T06:50:00.807Z,50.877117
2022-08-05T06:50:58.326Z,50.877193
2022-08-05T06:51:58.306Z,50.877220
2022-08-05T06:52:58.762Z,50.877213
2022-08-05T06:53:59.300Z,50.877182
2022-08-05T06:54:58.288Z,50.877193
2022-08-05T06:55:58.277Z,50.877190
2022-08-05T06:57:58.043Z,50.877125
2022-08-05T06:58:11.660Z,50.877148
2022-08-05T06:58:58.256Z,50.877129
2022-08-05T06:59:58.399Z,50.877178
2022-08-05T07:00:59.291Z,50.877190
2022-08-05T07:01:58.208Z,50.877186
2022-08-05T07:02:58.201Z,50.877167
2022-08-05T07:03:58.195Z,50.877163
2022-08-05T07:04:58.206Z,50.877190
2022-08-05T07:05:58.183Z,50.877205
2022-08-05T07:06:58.218Z,50.877213
2022-08-05T07:07:58.165Z,50.877174
2022-08-05T07:08:59.044Z,50.877213
2022-08-05T07:09:58.576Z,50.877155
2022-08-05T07:10:58.134Z,50.877144
2022-08-05T07:12:00.489Z,50.877228
2022-08-05T07:12:58.115Z,50.877174
2022-08-05T07:13:59.735Z,50.877159
2022-08-05T07:14:58.112Z,50.877163
2022-08-05T07:16:01.623Z,50.877174
2022-08-05T07:17:56.580Z,50.877159
2022-08-05T07:18:08.303Z,50.877163
2022-08-05T07:19:00.071Z,50.877155
2022-08-05T07:20:31.277Z,50.877178
2022-08-05T07:21:04.849Z,50.877193
2022-08-05T07:22:00.479Z,50.877178
2022-08-05T07:22:58.021Z,50.877178
2022-08-05T07:23:58.022Z,50.877182
2022-08-05T07:24:58.024Z,50.877144
2022-08-05T07:25:57.996Z,50.877163
2022-08-05T07:26:58.002Z,50.877182
2022-08-05T07:28:03.932Z,50.877174
2022-08-05T07:28:59.960Z,50.877151
2022-08-05T07:30:24.043Z,50.877163
2022-08-05T07:30:58.946Z,50.877190
2022-08-05T07:31:57.930Z,50.877171
2022-08-05T07:32:57.997Z,50.877178
2022-08-05T07:33:59.839Z,50.877182
2022-08-05T07:34:58.691Z,50.877171
2022-08-05T07:36:19.356Z,50.877178
2022-08-05T07:36:58.882Z,50.877186
2022-08-05T07:37:57.901Z,50.877213
2022-08-05T07:38:57.887Z,50.877182
2022-08-05T07:40:27.027Z,50.877197
2022-08-05T07:41:00.399Z,50.877190
2022-08-05T07:42:14.609Z,50.877197
2022-08-05T07:42:58.858Z,50.877201
2022-08-05T07:43:57.826Z,50.877174
2022-08-05T07:44:57.813Z,50.877171
2022-08-05T07:45:58.741Z,50.877163
2022-08-05T07:46:58.791Z,50.877186
2022-08-05T07:47:57.788Z,50.877201
2022-08-05T07:49:01.679Z,50.877193
2022-08-05T07:49:58.765Z,50.877186
2022-08-05T07:50:57.760Z,50.877190
2022-08-05T07:51:57.763Z,50.877155
2022-08-05T07:52:57.737Z,50.877148
2022-08-05T07:53:57.742Z,50.877163
2022-08-05T07:54:57.717Z,50.877155
2022-08-05T07:56:06.412Z,50.877190
2022-08-05T07:57:13.575Z,50.877174
2022-08-05T07:58:03.171Z,50.877163
2022-08-05T07:58:59.229Z,50.877163
2022-08-05T07:59:57.687Z,50.877159
2022-08-05T08:00:57.687Z,50.877132
2022-08-05T08:01:58.011Z,50.877178
2022-08-05T08:03:15.088Z,50.877186
2022-08-05T08:03:58.628Z,50.877178
2022-08-05T08:04:57.654Z,50.877174
2022-08-05T08:05:57.605Z,50.877178
2022-08-05T08:06:57.603Z,50.877167
2022-08-05T08:08:00.256Z,50.877163
2022-08-05T08:08:57.582Z,50.877140
2022-08-05T08:09:57.574Z,50.877159
2022-08-05T08:10:57.572Z,50.877129
2022-08-05T08:12:00.095Z,50.877148
2022-08-05T08:12:58.532Z,50.877125
2022-08-05T08:14:00.775Z,50.877140
2022-08-05T08:14:57.534Z,50.877148
2022-08-05T08:16:34.569Z,50.877113
2022-08-05T08:16:58.508Z,50.877110
2022-08-05T08:17:57.524Z,50.877106
2022-08-05T08:18:57.492Z,50.877132
2022-08-05T08:20:21.994Z,50.877151
2022-08-05T08:21:02.872Z,50.877159
2022-08-05T08:21:58.470Z,50.877144
2022-08-05T08:22:57.467Z,50.877121
2022-08-05T08:24:03.843Z,50.877113
2022-08-05T08:25:03.385Z,50.877110
2022-08-05T08:26:00.698Z,50.877041
2022-08-05T08:26:58.416Z,50.877102
2022-08-05T08:27:57.410Z,50.877121
2022-08-05T08:29:02.261Z,50.877117
2022-08-05T08:30:04.021Z,50.877056
2022-08-05T08:30:58.397Z,50.877129
2022-08-05T08:31:57.366Z,50.877125
2022-08-05T08:32:57.368Z,50.877087
2022-08-05T08:33:57.399Z,50.877075
2022-08-05T08:34:57.333Z,50.877136
2022-08-05T08:36:18.399Z,50.877106
2022-08-05T08:37:04.572Z,50.877090
2022-08-05T08:37:59.311Z,50.877125
2022-08-05T08:38:57.562Z,50.877140
2022-08-05T08:39:57.345Z,50.877148
2022-08-05T08:40:57.312Z,50.877106
2022-08-05T08:41:59.964Z,50.877075
2022-08-05T08:42:57.409Z,50.877075
2022-08-05T08:45:18.193Z,50.877071
2022-08-05T08:45:20.090Z,50.877045
2022-08-05T08:45:58.261Z,50.877087
2022-08-05T08:46:57.238Z,50.877129
2022-08-05T08:48:06.805Z,50.877132
2022-08-05T08:49:06.213Z,50.877110
2022-08-05T08:50:22.509Z,50.877151
2022-08-05T08:51:22.493Z,50.877144
2022-08-05T08:52:03.820Z,50.877148
2022-08-05T08:52:58.202Z,50.877151
2022-08-05T08:53:57.166Z,50.877163
2022-08-05T08:54:57.793Z,50.877167
2022-08-05T08:56:02.813Z,50.877163
2022-08-05T08:56:57.141Z,50.877155
2022-08-05T08:57:57.958Z,50.877167
2022-08-05T08:58:57.147Z,50.877163
2022-08-05T08:59:57.097Z,50.877167
2022-08-05T09:00:57.200Z,50.877155
2022-08-05T09:02:01.135Z,50.877171
2022-08-05T09:02:57.082Z,50.877163
2022-08-05T09:03:58.322Z,50.877155
2022-08-05T09:05:16.372Z,50.877140
2022-08-05T09:06:08.881Z,50.877174
2022-08-05T09:06:58.300Z,50.877201
2022-08-05T09:07:59.052Z,50.877220
2022-08-05T09:08:57.016Z,50.877205
2022-08-05T09:09:57.056Z,50.877197
2022-08-05T09:10:57.017Z,50.877205
2022-08-05T09:12:02.259Z,50.877178
2022-08-05T09:13:04.469Z,50.877186
2022-08-05T09:14:09.570Z,50.877216
2022-08-05T09:15:04.749Z,50.877216
2022-08-05T09:15:56.964Z,50.877224
2022-08-05T09:16:56.964Z,50.877190
2022-08-05T09:17:56.961Z,50.877182
2022-08-05T09:18:56.938Z,50.877159
2022-08-05T09:20:02.927Z,50.877163
2022-08-05T09:20:57.922Z,50.877201
2022-08-05T09:22:22.226Z,50.877186
2022-08-05T09:23:04.827Z,50.877205
2022-08-05T09:24:02.092Z,50.877201
2022-08-05T09:24:58.883Z,50.877174
2022-08-05T09:26:00.091Z,50.877151
2022-08-05T09:26:58.787Z,50.877167
2022-08-05T09:28:04.599Z,50.877163
2022-08-05T09:28:57.862Z,50.877148
2022-08-05T09:29:56.832Z,50.877148
2022-08-05T09:30:56.822Z,50.877159
2022-08-05T09:32:40.407Z,50.877186
2022-08-05T09:32:58.024Z,50.877155
2022-08-05T09:33:56.816Z,50.877167
2022-08-05T09:34:56.784Z,50.877163
2022-08-05T09:35:56.774Z,50.877178
2022-08-05T09:36:59.749Z,50.877171
2022-08-05T09:38:12.808Z,50.877171
2022-08-05T09:38:57.797Z,50.877186
2022-08-05T09:39:56.823Z,50.877193
2022-08-05T09:40:56.731Z,50.877209
2022-08-05T09:41:56.737Z,50.877144
2022-08-05T09:42:56.701Z,50.877178
2022-08-05T09:43:56.700Z,50.877220
2022-08-05T09:45:03.139Z,50.877193
2022-08-05T09:46:06.225Z,50.877182
2022-08-05T09:46:58.026Z,50.877190
2022-08-05T09:47:57.441Z,50.877182
2022-08-05T09:49:07.625Z,50.877148
2022-08-05T09:50:01.973Z,50.877197
2022-08-05T09:50:57.641Z,50.877213
2022-08-05T09:51:56.653Z,50.877182
2022-08-05T09:52:56.608Z,50.877178
2022-08-05T09:53:59.143Z,50.877216
2022-08-05T09:54:56.607Z,50.877197
2022-08-05T09:56:04.808Z,50.877163
2022-08-05T09:57:01.598Z,50.877167
2022-08-05T09:57:58.646Z,50.877205
2022-08-05T09:58:56.619Z,50.877197
2022-08-05T09:59:56.554Z,50.877190
2022-08-05T10:00:56.544Z,50.877174
2022-08-05T10:01:58.402Z,50.877159
2022-08-05T10:02:58.589Z,50.877163
2022-08-05T10:03:59.545Z,50.877190
2022-08-05T10:04:56.505Z,50.877201
2022-08-05T10:05:56.525Z,50.877209
2022-08-05T10:06:59.462Z,50.877205
2022-08-05T10:08:36.660Z,50.877213
2022-08-05T10:08:57.505Z,50.877197
2022-08-05T10:10:04.335Z,50.877243
2022-08-05T10:10:57.470Z,50.877220
2022-08-05T10:11:56.444Z,50.877193
2022-08-05T10:12:56.432Z,50.877201
2022-08-05T10:13:56.464Z,50.877197
2022-08-05T10:14:56.428Z,50.877193
2022-08-05T10:15:56.426Z,50.877186
2022-08-05T10:16:56.398Z,50.877167
2022-08-05T10:17:56.751Z,50.877182
2022-08-05T10:18:56.391Z,50.877197
2022-08-05T10:20:04.208Z,50.877182
2022-08-05T10:20:57.368Z,50.877186
2022-08-05T10:21:56.346Z,50.877197
2022-08-05T10:22:56.345Z,50.877186
2022-08-05T10:24:00.406Z,50.877178
2022-08-05T10:24:57.361Z,50.877186
2022-08-05T10:25:56.328Z,50.877186
2022-08-05T10:26:56.382Z,50.877182
2022-08-05T10:28:13.705Z,50.877182
2022-08-05T10:28:57.290Z,50.877190
2022-08-05T10:30:07.195Z,50.877182
2022-08-05T10:32:50.784Z,50.877182
2022-08-05T10:32:55.166Z,50.877186
2022-08-05T10:33:01.375Z,50.877163
2022-08-05T10:33:57.245Z,50.877186
2022-08-05T10:34:56.246Z,50.877159
2022-08-05T10:35:59.740Z,50.877182
2022-08-05T10:36:56.203Z,50.877220
2022-08-05T10:37:56.208Z,50.877178
2022-08-05T10:38:56.231Z,50.877178
2022-08-05T10:40:03.865Z,50.877167
2022-08-05T10:40:57.971Z,50.877193
2022-08-05T10:42:00.548Z,50.877193
2022-08-05T10:42:56.150Z,50.877201
2022-08-05T10:43:56.161Z,50.877193
2022-08-05T10:44:56.162Z,50.877174
2022-08-05T10:45:56.133Z,50.877193
2022-08-05T10:46:57.137Z,50.877159
2022-08-05T10:48:30.327Z,50.877171
2022-08-05T10:49:02.682Z,50.877167
2022-08-05T10:50:20.258Z,50.877186
2022-08-05T10:50:57.080Z,50.877197
2022-08-05T10:52:00.119Z,50.877174
2022-08-05T10:52:58.820Z,50.877182
2022-08-05T10:53:56.055Z,50.877182
2022-08-05T10:54:57.275Z,50.877163
2022-08-05T10:56:05.287Z,50.877174
2022-08-05T10:56:57.306Z,50.877182
2022-08-05T10:57:56.019Z,50.877178
2022-08-05T10:58:56.018Z,50.877190
2022-08-05T11:00:01.790Z,50.877163
2022-08-05T11:01:03.011Z,50.877171
2022-08-05T11:02:05.261Z,50.877163
2022-08-05T11:02:58.056Z,50.877201
2022-08-05T11:03:55.997Z,50.877167
2022-08-05T11:04:56.003Z,50.877167
2022-08-05T11:05:55.962Z,50.877182
2022-08-05T11:06:55.974Z,50.877163
2022-08-05T11:08:02.618Z,50.877098
2022-08-05T11:08:55.917Z,50.877209
2022-08-05T11:10:03.679Z,50.877178
2022-08-05T11:11:01.058Z,50.877144
2022-08-05T11:11:55.921Z,50.877186
2022-08-05T11:12:55.995Z,50.877213
2022-08-05T11:13:58.309Z,50.877235
2022-08-05T11:15:11.648Z,50.877190
2022-08-05T11:16:00.961Z,50.877205
2022-08-05T11:16:57.755Z,50.877209
2022-08-05T11:17:57.083Z,50.877228
2022-08-05T11:18:55.832Z,50.877182
2022-08-05T11:20:10.612Z,50.877159
2022-08-05T11:20:56.825Z,50.877174
2022-08-05T11:21:55.793Z,50.877178
2022-08-05T11:22:59.180Z,50.877178
2022-08-05T11:24:05.500Z,50.877186
2022-08-05T11:25:16.830Z,50.877213
2022-08-05T11:26:04.711Z,50.877163
2022-08-05T11:26:55.765Z,50.877178
2022-08-05T11:28:00.800Z,50.877186
2022-08-05T11:28:56.768Z,50.877216
2022-08-05T11:29:55.738Z,50.877251
2022-08-05T11:30:55.731Z,50.877216
2022-08-05T11:32:00.050Z,50.877159
2022-08-05T11:32:56.748Z,50.877174
2022-08-05T11:33:55.829Z,50.877163
2022-08-05T11:34:55.687Z,50.877197
2022-08-05T11:36:07.521Z,50.877205